createdAt,value
2019-02-04T00:00:01.185Z,24.27
2019-02-04T00:02:41.612Z,30.57
2019-02-04T00:05:21.989Z,34.47
2019-02-04T00:08:02.866Z,32.50
2019-02-04T00:10:43.685Z,30.27
2019-02-04T00:13:24.401Z,31.47
2019-02-04T00:16:05.098Z,26.30
2019-02-04T00:18:45.829Z,27.37
2019-02-04T00:21:26.888Z,30.17
2019-02-04T00:24:07.588Z,34.77
2019-02-04T00:26:51.492Z,30.07
2019-02-04T00:32:16.225Z,29.57
2019-02-04T00:34:57.689Z,31.00
2019-02-04T00:37:38.325Z,31.37
2019-02-04T00:40:18.957Z,31.00
2019-02-04T00:42:59.681Z,29.10
2019-02-04T00:45:40.002Z,27.90
2019-02-04T00:48:20.828Z,27.00
2019-02-04T00:51:01.678Z,28.53
2019-02-04T00:53:42.326Z,30.23
2019-02-04T00:56:11.600Z,30.50
2019-02-04T00:58:51.944Z,26.17
2019-02-04T01:01:32.806Z,27.53
2019-02-04T01:04:13.457Z,21.77
2019-02-04T01:06:54.161Z,31.83
2019-02-04T01:09:34.947Z,28.67
2019-02-04T01:12:16.127Z,33.77
2019-02-04T01:17:46.032Z,27.83
2019-02-04T01:20:26.753Z,26.13
2019-02-04T01:23:07.530Z,34.43
2019-02-04T01:28:37.302Z,27.60
2019-02-04T01:31:21.296Z,28.23
2019-02-04T01:36:47.174Z,31.17
2019-02-04T01:42:10.185Z,32.53
2019-02-04T01:44:50.825Z,31.43
2019-02-04T01:47:31.594Z,31.97
2019-02-04T01:50:11.982Z,34.33
2019-02-04T01:52:52.701Z,31.07
2019-02-04T01:55:33.686Z,32.43
2019-02-04T01:58:14.245Z,27.27
2019-02-04T02:00:55.002Z,30.47
2019-02-04T02:03:36.022Z,31.23
2019-02-04T02:06:16.862Z,32.37
2019-02-04T02:08:57.534Z,31.57
2019-02-04T02:11:38.184Z,24.40
2019-02-04T02:14:07.213Z,30.53
2019-02-04T02:16:55.508Z,29.63
2019-02-04T02:19:43.629Z,28.00
2019-02-04T02:22:31.006Z,28.33
2019-02-04T02:25:19.126Z,33.50
2019-02-04T02:28:07.513Z,34.90
2019-02-04T02:30:55.629Z,31.67
2019-02-04T02:33:43.768Z,30.83
2019-02-04T02:36:31.889Z,33.00
2019-02-04T02:39:20.028Z,28.73
2019-02-04T02:42:09.878Z,31.00
2019-02-04T02:44:58.017Z,26.70
2019-02-04T02:47:46.166Z,28.87
2019-02-04T02:50:34.281Z,32.93
2019-02-04T02:53:22.332Z,24.57
2019-02-04T02:56:10.568Z,27.87
2019-02-04T02:58:54.665Z,27.03
2019-02-04T03:04:22.197Z,40.30
2019-02-04T03:12:38.193Z,22.00
2019-02-04T03:15:19.877Z,31.03
2019-02-04T03:17:59.109Z,28.13
2019-02-04T03:23:43.216Z,30.10
2019-02-04T03:26:31.404Z,24.53
2019-02-04T03:29:19.536Z,29.53
2019-02-04T03:32:07.843Z,24.77
2019-02-04T03:34:57.684Z,27.27
2019-02-04T03:37:45.804Z,24.93
2019-02-04T03:40:34.341Z,27.57
2019-02-04T03:43:22.581Z,24.47
2019-02-04T03:46:10.685Z,24.23
2019-02-04T03:48:58.817Z,22.63
2019-02-04T03:51:46.932Z,23.50
2019-02-04T03:54:35.060Z,22.63
2019-02-04T03:57:23.185Z,22.47
2019-02-04T04:00:03.693Z,27.57
2019-02-04T04:02:44.285Z,21.07
2019-02-04T04:05:24.957Z,22.77
2019-02-04T04:08:05.350Z,23.40
2019-02-04T04:10:45.917Z,19.57
2019-02-04T04:13:26.661Z,23.87
2019-02-04T04:16:07.386Z,24.73
2019-02-04T04:18:47.814Z,29.90
2019-02-04T04:21:28.689Z,22.30
2019-02-04T04:24:09.456Z,28.33
2019-02-04T04:26:50.276Z,26.93
2019-02-04T04:29:31.097Z,31.57
2019-02-04T04:32:11.931Z,31.77
2019-02-04T04:34:52.772Z,28.07
2019-02-04T04:37:33.230Z,26.03
2019-02-04T04:40:13.737Z,25.67
2019-02-04T04:42:54.729Z,27.23
2019-02-04T04:45:35.541Z,27.53
2019-02-04T04:48:26.092Z,22.37
2019-02-04T04:50:58.674Z,24.40
2019-02-04T04:53:39.559Z,22.77
2019-02-04T04:56:20.906Z,21.37
2019-02-04T04:59:01.630Z,22.63
2019-02-04T05:01:42.153Z,25.73
2019-02-04T05:04:22.741Z,25.33
2019-02-04T05:07:05.174Z,26.17
2019-02-04T05:09:46.517Z,27.90
2019-02-04T05:15:20.986Z,41.13
2019-02-04T05:26:23.398Z,32.97
2019-02-04T05:34:32.785Z,37.60
2019-02-04T05:37:13.953Z,41.03
2019-02-04T05:39:54.639Z,34.07
2019-02-04T05:42:35.049Z,41.97
2019-02-04T05:45:16.037Z,34.67
2019-02-04T05:47:56.470Z,27.97
2019-02-04T05:50:36.806Z,38.40
2019-02-04T05:53:18.286Z,27.40
2019-02-04T05:58:41.324Z,23.43
2019-02-04T06:01:21.969Z,23.60
2019-02-04T06:04:02.558Z,36.53
2019-02-04T06:06:46.352Z,31.23
2019-02-04T06:09:27.149Z,38.97
2019-02-04T06:14:54.009Z,29.30
2019-02-04T06:17:35.237Z,27.17
2019-02-04T06:20:15.766Z,24.03
2019-02-04T06:22:56.281Z,28.63
2019-02-04T06:25:37.188Z,23.07
2019-02-04T06:28:18.098Z,24.63
2019-02-04T06:30:47.280Z,24.37
2019-02-04T06:33:35.400Z,25.53
2019-02-04T06:36:23.511Z,22.90
2019-02-04T06:39:13.365Z,43.57
2019-02-04T06:42:01.517Z,37.20
2019-02-04T06:44:49.640Z,33.33
2019-02-04T06:47:37.773Z,27.30
2019-02-04T06:50:25.889Z,39.47
2019-02-04T06:53:14.025Z,27.17
2019-02-04T06:56:02.148Z,30.43
2019-02-04T06:58:44.029Z,26.67
2019-02-04T07:01:24.451Z,29.20
2019-02-04T07:04:06.067Z,32.17
2019-02-04T07:06:47.267Z,30.77
2019-02-04T07:09:28.008Z,27.23
2019-02-04T07:14:54.266Z,24.27
2019-02-04T07:17:34.694Z,28.33
2019-02-04T07:20:15.338Z,13.57
2019-02-04T07:22:56.225Z,22.77
2019-02-04T07:25:37.301Z,17.50
2019-02-04T07:28:17.806Z,17.33
2019-02-04T07:30:58.525Z,17.80
2019-02-04T07:33:39.488Z,23.63
2019-02-04T07:36:20.192Z,23.90
2019-02-04T07:39:00.909Z,25.73
2019-02-04T07:41:42.181Z,16.50
2019-02-04T07:44:23.186Z,21.17
2019-02-04T07:49:52.996Z,26.23
2019-02-04T07:55:15.857Z,34.93
2019-02-04T08:00:41.572Z,23.37
2019-02-04T08:03:22.597Z,21.07
2019-02-04T08:06:05.107Z,21.37
2019-02-04T08:08:45.713Z,22.53
2019-02-04T08:14:16.037Z,29.23
2019-02-04T08:16:56.869Z,32.50
2019-02-04T08:22:24.866Z,27.03
2019-02-04T08:25:11.362Z,26.57
2019-02-04T08:27:57.803Z,27.43
2019-02-04T08:30:44.349Z,24.93
2019-02-04T08:33:27.427Z,20.93
2019-02-04T08:36:08.542Z,15.83
2019-02-04T08:41:38.797Z,13.63
2019-02-04T08:44:20.561Z,14.17
2019-02-04T08:55:22.498Z,18.90
2019-02-04T09:00:55.854Z,13.03
2019-02-04T09:06:22.089Z,14.20
2019-02-04T09:09:02.550Z,15.90
2019-02-04T09:14:29.071Z,13.07
2019-02-04T09:17:11.068Z,15.77
2019-02-04T09:19:52.542Z,16.23
2019-02-04T09:25:22.715Z,9.97
2019-02-04T09:28:04.095Z,9.93
2019-02-04T09:30:45.018Z,15.90
2019-02-04T09:36:07.289Z,11.47
2019-02-04T09:38:47.887Z,12.70
2019-02-04T09:41:28.265Z,13.43
2019-02-04T09:44:08.997Z,15.03
2019-02-04T09:49:55.465Z,11.70
2019-02-04T09:52:37.379Z,10.82
2019-02-04T09:55:18.574Z,11.10
2019-02-04T09:57:59.223Z,11.03
2019-02-04T10:00:39.950Z,13.38
2019-02-04T10:03:20.474Z,14.58
2019-02-04T10:06:01.268Z,13.38
2019-02-04T10:08:41.890Z,14.30
2019-02-04T10:11:22.276Z,14.18
2019-02-04T10:14:03.013Z,12.10
2019-02-04T10:16:43.667Z,11.43
2019-02-04T10:19:24.435Z,11.33
2019-02-04T10:22:05.262Z,15.03
2019-02-04T10:24:46.055Z,12.73
2019-02-04T10:27:26.721Z,15.13
2019-02-04T10:30:07.319Z,14.78
2019-02-04T10:32:47.774Z,15.95
2019-02-04T10:35:28.625Z,18.87
2019-02-04T10:38:09.123Z,13.80
2019-02-04T10:40:49.927Z,13.90
2019-02-04T10:43:30.695Z,15.20
2019-02-04T10:46:11.381Z,13.00
2019-02-04T10:48:52.213Z,10.03
2019-02-04T10:51:33.013Z,14.00
2019-02-04T10:54:14.010Z,12.30
2019-02-04T10:56:54.695Z,12.70
2019-02-04T10:59:35.512Z,13.20
2019-02-04T11:02:16.663Z,14.00
2019-02-04T11:04:57.549Z,13.28
2019-02-04T11:07:38.013Z,12.75
2019-02-04T11:13:00.701Z,11.28
2019-02-04T11:15:29.785Z,9.98
2019-02-04T11:18:19.700Z,9.80
2019-02-04T11:21:07.866Z,10.60
2019-02-04T11:23:56.009Z,11.25
2019-02-04T11:26:44.165Z,9.73
2019-02-04T11:29:32.385Z,10.70
2019-02-04T11:32:20.651Z,11.78
2019-02-04T11:35:09.010Z,12.50
2019-02-04T11:37:57.174Z,11.22
2019-02-04T11:40:45.994Z,12.05
2019-02-04T11:43:35.287Z,10.05
2019-02-04T11:46:23.481Z,9.58
2019-02-04T11:49:11.693Z,10.75
2019-02-04T11:51:59.819Z,12.30
2019-02-04T11:54:47.948Z,13.70
2019-02-04T11:57:36.060Z,12.00
2019-02-04T12:00:17.126Z,11.00
2019-02-04T12:02:57.845Z,11.65
2019-02-04T12:05:38.424Z,8.48
2019-02-04T12:08:19.321Z,8.35
2019-02-04T12:10:59.965Z,9.70
2019-02-04T12:13:40.666Z,9.98
2019-02-04T12:16:21.414Z,10.78
2019-02-04T12:21:48.286Z,10.23
2019-02-04T12:24:29.213Z,11.83
2019-02-04T12:27:09.810Z,12.53
2019-02-04T12:29:50.450Z,12.03
2019-02-04T12:32:30.965Z,9.60
2019-02-04T12:35:11.941Z,8.83
2019-02-04T12:37:52.594Z,10.47
2019-02-04T12:40:33.107Z,11.83
2019-02-04T12:43:14.212Z,10.90
2019-02-04T12:45:54.870Z,10.03
2019-02-04T12:48:35.600Z,9.77
2019-02-04T12:51:16.315Z,7.00
2019-02-04T12:53:56.925Z,8.68
2019-02-04T12:56:37.462Z,9.88
2019-02-04T12:59:18.014Z,8.98
2019-02-04T13:04:47.805Z,8.23
2019-02-04T13:07:29.062Z,7.55
2019-02-04T13:10:09.822Z,9.35
2019-02-04T13:12:50.539Z,7.92
2019-02-04T13:15:31.024Z,8.50
2019-02-04T13:18:11.686Z,8.93
2019-02-04T13:20:52.700Z,8.83
2019-02-04T13:23:33.528Z,9.60
2019-02-04T13:26:14.354Z,11.35
2019-02-04T13:28:55.070Z,9.70
2019-02-04T13:31:35.945Z,9.23
2019-02-04T13:34:16.837Z,8.28
2019-02-04T13:36:57.617Z,11.10
2019-02-04T13:39:38.717Z,12.07
2019-02-04T13:42:19.377Z,14.00
2019-02-04T13:45:00.400Z,13.80
2019-02-04T13:47:41.033Z,10.03
2019-02-04T13:50:21.816Z,10.65
2019-02-04T13:53:02.572Z,9.98
2019-02-04T13:55:43.128Z,10.28
2019-02-04T13:58:23.805Z,8.60
2019-02-04T14:01:04.761Z,12.75
2019-02-04T14:03:48.317Z,8.18
2019-02-04T14:06:26.272Z,9.85
2019-02-04T14:09:33.521Z,12.00
2019-02-04T14:12:21.638Z,9.88
2019-02-04T14:15:10.187Z,12.10
2019-02-04T14:17:58.324Z,15.43
2019-02-04T14:20:46.455Z,12.13
2019-02-04T14:23:34.565Z,12.10
2019-02-04T14:26:22.690Z,13.27
2019-02-04T14:29:11.033Z,13.50
2019-02-04T14:32:11.512Z,12.80
2019-02-04T14:34:59.626Z,16.00
2019-02-04T14:37:48.168Z,15.40
2019-02-04T14:40:19.005Z,18.13
2019-02-04T14:43:26.440Z,16.37
2019-02-04T14:46:17.081Z,13.03
2019-02-04T14:49:24.297Z,17.93
2019-02-04T14:52:31.726Z,20.23
2019-02-04T14:55:38.942Z,16.43
2019-02-04T14:58:46.181Z,17.67
2019-02-04T15:01:42.373Z,16.80
2019-02-04T15:04:49.588Z,18.13
2019-02-04T15:07:56.818Z,16.37
2019-02-04T15:11:04.320Z,15.60
2019-02-04T15:14:11.529Z,15.47
2019-02-04T15:17:18.749Z,14.53
2019-02-04T15:20:25.974Z,14.10
2019-02-04T15:23:33.205Z,17.93
2019-02-04T15:26:40.450Z,18.10
2019-02-04T15:29:46.789Z,17.37
2019-02-04T15:32:49.781Z,16.00
2019-02-04T15:35:56.997Z,16.73
2019-02-04T15:38:48.861Z,16.60
2019-02-04T15:41:57.862Z,19.17
2019-02-04T15:45:05.077Z,21.03
2019-02-04T15:47:55.321Z,18.60
2019-02-04T15:51:04.281Z,23.67
2019-02-04T15:53:52.717Z,19.97
2019-02-04T15:56:40.845Z,21.33
2019-02-04T15:59:21.969Z,23.50
2019-02-04T16:02:02.922Z,26.33
2019-02-04T16:04:43.901Z,30.30
2019-02-04T16:07:24.651Z,27.37
2019-02-04T16:10:05.554Z,31.83
2019-02-04T16:15:32.506Z,29.47
2019-02-04T16:21:06.560Z,30.23
2019-02-04T16:23:47.369Z,30.17
2019-02-04T16:26:28.026Z,29.50
2019-02-04T16:29:08.976Z,31.97
2019-02-04T16:31:49.609Z,29.97
2019-02-04T16:34:30.241Z,27.83
2019-02-04T16:37:11.205Z,37.23
2019-02-04T16:39:51.893Z,32.13
2019-02-04T16:42:31.177Z,47.03
2019-02-04T16:45:19.937Z,34.13
2019-02-04T16:48:10.147Z,33.10
2019-02-04T16:51:10.932Z,31.73
2019-02-04T16:53:48.181Z,41.80
2019-02-04T16:56:36.313Z,47.37
2019-02-04T16:59:17.282Z,52.80
2019-02-04T17:01:57.986Z,42.90
2019-02-04T17:04:38.556Z,54.70
2019-02-04T17:07:19.110Z,41.50
2019-02-04T17:09:48.044Z,61.40
2019-02-04T17:12:36.389Z,79.57
2019-02-04T17:15:25.837Z,59.97
2019-02-04T17:18:14.870Z,47.07
2019-02-04T17:21:03.014Z,39.90
2019-02-04T17:23:51.054Z,41.37
2019-02-04T17:26:39.189Z,51.23
2019-02-04T17:29:27.357Z,71.73
2019-02-04T17:32:15.506Z,46.77
2019-02-04T17:35:03.629Z,41.70
2019-02-04T17:37:51.697Z,42.53
2019-02-04T17:40:39.817Z,47.67
2019-02-04T17:43:27.941Z,53.30
2019-02-04T17:46:16.077Z,38.20
2019-02-04T17:49:04.886Z,50.33
2019-02-04T17:51:53.058Z,58.70
2019-02-04T17:54:41.210Z,41.40
2019-02-04T17:57:29.345Z,44.93
2019-02-04T18:00:14.274Z,72.83
2019-02-04T18:02:55.023Z,51.40
2019-02-04T18:05:35.406Z,49.17
2019-02-04T18:08:16.232Z,56.37
2019-02-04T18:10:58.241Z,58.67
2019-02-04T18:13:39.014Z,40.83
2019-02-04T18:16:19.765Z,43.17
2019-02-04T18:19:00.729Z,46.17
2019-02-04T18:21:41.591Z,52.67
2019-02-04T18:27:05.287Z,52.90
2019-02-04T18:29:46.485Z,52.33
2019-02-04T18:32:27.178Z,43.97
2019-02-04T18:35:08.400Z,40.20
2019-02-04T18:37:52.374Z,45.57
2019-02-04T18:40:33.642Z,39.53
2019-02-04T18:43:14.537Z,36.57
2019-02-04T18:45:54.884Z,42.20
2019-02-04T18:48:35.723Z,39.90
2019-02-04T18:51:16.778Z,35.87
2019-02-04T18:53:57.190Z,36.00
2019-02-04T18:56:16.754Z,42.40
2019-02-04T18:58:57.568Z,39.57
2019-02-04T19:01:38.154Z,40.17
2019-02-04T19:04:19.042Z,43.83
2019-02-04T19:07:00.113Z,32.33
2019-02-04T19:09:29.198Z,41.00
2019-02-04T19:12:18.210Z,47.73
2019-02-04T19:15:08.093Z,54.93
2019-02-04T19:17:57.338Z,43.97
2019-02-04T19:20:45.464Z,35.43
2019-02-04T19:23:33.593Z,39.80
2019-02-04T19:26:23.668Z,44.50
2019-02-04T19:29:11.794Z,47.77
2019-02-04T19:32:02.809Z,36.23
2019-02-04T19:34:50.005Z,42.17
2019-02-04T19:37:38.140Z,67.93
2019-02-04T19:40:26.265Z,50.97
2019-02-04T19:43:14.403Z,37.80
2019-02-04T19:46:02.520Z,39.27
2019-02-04T19:48:50.657Z,36.77
2019-02-04T19:51:40.493Z,41.93
2019-02-04T19:54:28.625Z,32.63
2019-02-04T19:57:17.013Z,34.50
2019-02-04T19:59:57.660Z,35.47
2019-02-04T20:02:38.358Z,35.00
2019-02-04T20:05:19.772Z,32.43
2019-02-04T20:08:00.536Z,42.37
2019-02-04T20:10:40.916Z,59.97
2019-02-04T20:13:22.482Z,60.40
2019-02-04T20:16:03.218Z,64.07
2019-02-04T20:18:43.797Z,58.37
2019-02-04T20:21:24.753Z,38.70
2019-02-04T20:24:05.409Z,38.30
2019-02-04T20:26:46.049Z,39.47
2019-02-04T20:29:26.839Z,39.90
2019-02-04T20:32:07.317Z,36.90
2019-02-04T20:34:48.262Z,35.83
2019-02-04T20:37:29.456Z,41.10
2019-02-04T20:40:09.801Z,40.17
2019-02-04T20:45:37.169Z,37.30
2019-02-04T20:48:17.753Z,40.03
2019-02-04T20:51:00.243Z,42.43
2019-02-04T20:53:41.622Z,39.70
2019-02-04T20:56:20.858Z,45.10
2019-02-04T20:59:01.788Z,38.77
2019-02-04T21:04:45.026Z,48.77
2019-02-04T21:07:26.601Z,43.70
2019-02-04T21:10:07.787Z,48.07
2019-02-04T21:12:49.041Z,46.43
2019-02-04T21:15:29.729Z,48.33
2019-02-04T21:18:10.160Z,39.80
2019-02-04T21:20:50.639Z,37.40
2019-02-04T21:23:31.599Z,39.30
2019-02-04T21:26:12.391Z,41.70
2019-02-04T21:28:53.201Z,38.93
2019-02-04T21:31:33.728Z,37.23
2019-02-04T21:34:15.187Z,40.20
2019-02-04T21:36:59.116Z,36.50
2019-02-04T21:39:40.820Z,38.03
2019-02-04T21:42:21.780Z,39.60
2019-02-04T21:45:06.990Z,35.37
2019-02-04T21:47:51.556Z,35.47
2019-02-04T21:50:33.397Z,42.50
2019-02-04T21:53:15.009Z,40.63
2019-02-04T21:55:57.086Z,44.23
2019-02-04T21:58:43.769Z,46.90
2019-02-04T22:01:29.882Z,51.70
2019-02-04T22:04:11.954Z,38.53
2019-02-04T22:06:54.206Z,47.03
2019-02-04T22:09:36.796Z,38.00
2019-02-04T22:12:22.262Z,42.00
2019-02-04T22:15:07.215Z,43.27
2019-02-04T22:17:49.551Z,49.33
2019-02-04T22:20:21.260Z,41.10
2019-02-04T22:23:10.923Z,45.33
2019-02-04T22:26:01.022Z,44.47
2019-02-04T22:28:51.220Z,41.00
2019-02-04T22:31:56.547Z,41.27
2019-02-04T22:34:36.541Z,42.73
2019-02-04T22:37:25.977Z,40.00
2019-02-04T22:40:18.877Z,43.50
2019-02-04T22:46:05.491Z,36.60
2019-02-04T22:48:57.239Z,39.73
2019-02-04T22:51:45.968Z,41.80
2019-02-04T22:57:44.249Z,41.27
2019-02-04T23:00:27.407Z,46.43
2019-02-04T23:03:08.746Z,39.20
2019-02-04T23:08:25.073Z,47.23
2019-02-04T23:11:13.999Z,37.80
2019-02-04T23:17:11.196Z,44.53
2019-02-04T23:20:00.364Z,40.27
2019-02-04T23:22:51.245Z,39.80
2019-02-04T23:29:11.215Z,45.93
2019-02-04T23:31:59.401Z,53.17
2019-02-04T23:34:47.766Z,50.63
2019-02-04T23:37:36.173Z,54.43
2019-02-04T23:40:24.302Z,56.40
2019-02-04T23:43:12.468Z,55.57
2019-02-04T23:46:02.337Z,50.60
2019-02-04T23:48:50.528Z,51.63
2019-02-04T23:51:38.649Z,52.20
2019-02-04T23:54:26.821Z,50.80
2019-02-04T23:57:14.975Z,59.83
2019-02-04T23:59:55.985Z,44.60
